createdAt,value
2023-03-14T00:02:08.543Z,98161.78
2023-03-14T00:07:12.438Z,98135.78
2023-03-14T00:12:15.421Z,98111.84
2023-03-14T00:17:17.103Z,98094.91
2023-03-14T00:22:19.101Z,98068.31
2023-03-14T00:27:20.714Z,98078.94
2023-03-14T00:32:22.418Z,98083.25
2023-03-14T00:37:24.139Z,98081.78
2023-03-14T00:42:25.743Z,98091.31
2023-03-14T00:47:27.392Z,98102.69
2023-03-14T00:52:29.067Z,98103.31
2023-03-14T00:57:30.813Z,98101.22
2023-03-14T01:02:32.644Z,98114.44
2023-03-14T01:07:34.528Z,98124.34
2023-03-14T01:12:36.213Z,98118.38
2023-03-14T01:17:40.908Z,98115.72
2023-03-14T01:22:43.580Z,98096.50
2023-03-14T01:27:45.518Z,98093.00
2023-03-14T01:32:47.280Z,98098.78
2023-03-14T01:37:48.939Z,98108.25
2023-03-14T01:42:57.622Z,98103.41
2023-03-14T01:47:59.303Z,98094.28
2023-03-14T01:53:01.280Z,98083.16
2023-03-14T01:58:05.591Z,98084.81
2023-03-14T02:03:12.547Z,98078.63
2023-03-14T02:08:16.800Z,98069.94
2023-03-14T02:13:23.580Z,98075.13
2023-03-14T02:18:48.942Z,98066.44
2023-03-14T02:24:39.594Z,98072.84
2023-03-14T02:30:01.019Z,98065.03
2023-03-14T02:35:08.135Z,98050.63
2023-03-14T02:40:10.825Z,98052.69
2023-03-14T02:45:16.747Z,98064.66
2023-03-14T02:50:22.525Z,98073.53
2023-03-14T02:55:24.885Z,98069.66
2023-03-14T03:00:31.515Z,98063.66
2023-03-14T03:05:33.610Z,98061.72
2023-03-14T03:10:35.605Z,98053.44
2023-03-14T03:15:37.739Z,98046.22
2023-03-14T03:20:39.552Z,98030.72
2023-03-14T03:25:41.299Z,98042.50
2023-03-14T03:30:44.015Z,98045.19
2023-03-14T03:35:54.968Z,98053.84
2023-03-14T03:41:06.870Z,98054.22
2023-03-14T03:46:09.044Z,98070.28
2023-03-14T03:51:15.660Z,98058.28
2023-03-14T03:56:18.206Z,98050.44
2023-03-14T04:01:20.217Z,98047.00
2023-03-14T04:06:25.575Z,98031.94
2023-03-14T04:11:29.925Z,98045.78
2023-03-14T04:17:06.679Z,98048.84
2023-03-14T04:22:08.721Z,98063.88
2023-03-14T04:27:19.340Z,98050.91
2023-03-14T04:32:22.565Z,98046.34
2023-03-14T04:37:24.696Z,98031.09
2023-03-14T04:42:26.525Z,98028.59
2023-03-14T04:47:28.404Z,98028.66
2023-03-14T04:52:30.301Z,98018.25
2023-03-14T04:57:33.133Z,98019.97
2023-03-14T05:02:35.692Z,98018.53
2023-03-14T05:07:47.510Z,97999.31
2023-03-14T05:13:01.077Z,97993.78
2023-03-14T05:18:31.674Z,98014.03
2023-03-14T05:24:02.347Z,98014.47
2023-03-14T05:29:27.060Z,98010.09
2023-03-14T05:34:38.755Z,98007.63
2023-03-14T05:39:58.880Z,98010.94
2023-03-14T05:45:24.987Z,97996.47
2023-03-14T05:51:00.290Z,97984.53
2023-03-14T05:56:31.139Z,97987.19
2023-03-14T06:01:41.518Z,97979.16
2023-03-14T06:06:49.723Z,97977.53
2023-03-14T06:11:52.435Z,97981.78
2023-03-14T06:16:55.459Z,97983.16
2023-03-14T06:21:59.299Z,98000.38
2023-03-14T06:27:03.917Z,98013.97
2023-03-14T06:32:06.657Z,98016.66
2023-03-14T06:37:08.547Z,98027.72
2023-03-14T06:42:10.682Z,98033.69
2023-03-14T06:47:14.150Z,98032.66
2023-03-14T06:52:18.961Z,98043.34
2023-03-14T06:57:20.682Z,98043.53
2023-03-14T07:02:36.061Z,98047.44
2023-03-14T07:07:49.661Z,98028.78
2023-03-14T07:12:53.839Z,98034.16
2023-03-14T07:17:58.298Z,98039.56
2023-03-14T07:23:01.189Z,98052.13
2023-03-14T07:28:12.612Z,98055.25
2023-03-14T07:33:16.947Z,98060.94
2023-03-14T07:38:22.252Z,98046.09
2023-03-14T07:43:59.896Z,98048.53
2023-03-14T07:49:01.534Z,98056.78
2023-03-14T07:54:03.272Z,98050.56
2023-03-14T07:59:04.901Z,98049.50
2023-03-14T08:04:06.592Z,98035.91
2023-03-14T08:09:08.437Z,98043.03
2023-03-14T08:14:12.069Z,98031.59
2023-03-14T08:19:13.664Z,98041.00
2023-03-14T08:24:15.241Z,98044.78
2023-03-14T08:29:16.895Z,98036.63
2023-03-14T08:34:18.695Z,98046.69
2023-03-14T08:39:20.262Z,98040.03
2023-03-14T08:44:21.869Z,98027.88
2023-03-14T08:49:23.608Z,98038.53
2023-03-14T08:54:25.385Z,98029.94
2023-03-14T08:59:27.113Z,98021.31
2023-03-14T09:04:28.796Z,98031.03
2023-03-14T09:09:33.477Z,98021.31
2023-03-14T09:14:35.272Z,98023.59
2023-03-14T09:19:37.019Z,98025.81
2023-03-14T09:24:38.586Z,98033.41
2023-03-14T09:29:40.208Z,98036.69
2023-03-14T09:34:41.860Z,98028.69
2023-03-14T09:39:43.894Z,98044.16
2023-03-14T09:44:58.321Z,98043.78
2023-03-14T09:50:02.541Z,98046.53
2023-03-14T09:55:07.403Z,98044.63
2023-03-14T10:00:19.297Z,98048.09
2023-03-14T10:05:23.416Z,98048.91
2023-03-14T10:10:26.960Z,98053.41
2023-03-14T10:15:33.790Z,98045.56
2023-03-14T10:20:41.149Z,98058.78
2023-03-14T10:25:45.620Z,98045.59
2023-03-14T10:30:47.386Z,98039.34
2023-03-14T10:36:24.699Z,98042.66
2023-03-14T10:41:28.162Z,98046.16
2023-03-14T10:46:32.444Z,98047.72
2023-03-14T10:51:52.621Z,98033.94
2023-03-14T10:57:01.705Z,98038.16
2023-03-14T11:02:15.289Z,98040.13
2023-03-14T11:07:30.492Z,98044.81
2023-03-14T11:12:47.084Z,98047.00
2023-03-14T11:18:14.358Z,98041.00
2023-03-14T11:23:21.826Z,98031.69
2023-03-14T11:28:37.566Z,98030.28
2023-03-14T11:33:45.523Z,98036.09
2023-03-14T11:38:50.228Z,98020.84
2023-03-14T11:43:56.347Z,98017.91
2023-03-14T11:49:22.140Z,98013.72
2023-03-14T11:54:34.260Z,98003.78
2023-03-14T12:00:13.755Z,97995.66
2023-03-14T12:05:24.442Z,97987.88
2023-03-14T12:10:26.018Z,97989.19
2023-03-14T12:15:27.622Z,97984.50
2023-03-14T12:20:29.234Z,97979.09
2023-03-14T12:25:33.053Z,97982.47
2023-03-14T12:30:42.143Z,97965.69
2023-03-14T12:35:53.885Z,97966.19
2023-03-14T12:41:33.003Z,97979.16
2023-03-14T12:46:34.652Z,97973.22
2023-03-14T12:51:38.456Z,97962.56
2023-03-14T12:57:00.799Z,97952.56
2023-03-14T13:02:08.159Z,97947.47
2023-03-14T13:07:53.092Z,97939.72
2023-03-14T13:12:58.386Z,97934.13
2023-03-14T13:18:24.016Z,97932.38
2023-03-14T13:23:34.387Z,97927.22
2023-03-14T13:28:36.211Z,97934.94
2023-03-14T13:33:37.782Z,97927.00
2023-03-14T13:38:39.346Z,97927.09
2023-03-14T13:43:42.180Z,97925.84
2023-03-14T13:49:04.910Z,97922.06
2023-03-14T13:54:21.305Z,97919.03
2023-03-14T13:59:36.525Z,97918.88
2023-03-14T14:04:38.551Z,97913.88
2023-03-14T14:09:44.084Z,97913.88
2023-03-14T14:14:57.177Z,97910.94
2023-03-14T14:19:59.992Z,97911.19
2023-03-14T14:25:02.771Z,97901.47
2023-03-14T14:30:19.647Z,97891.97
2023-03-14T14:35:35.417Z,97886.03
2023-03-14T14:40:45.206Z,97899.13
2023-03-14T14:45:49.284Z,97902.16
2023-03-14T14:51:05.940Z,97890.09
2023-03-14T14:56:23.492Z,97895.25
2023-03-14T15:01:27.765Z,97880.94
2023-03-14T15:06:31.918Z,97890.72
2023-03-14T15:11:33.526Z,97894.56
2023-03-14T15:16:35.664Z,97878.88
2023-03-14T15:21:37.352Z,97878.03
2023-03-14T15:26:39.100Z,97884.22
2023-03-14T15:31:41.604Z,97898.88
2023-03-14T15:36:43.310Z,97901.44
2023-03-14T15:41:44.897Z,97904.28
2023-03-14T15:46:46.518Z,97898.50
2023-03-14T15:51:48.091Z,97899.44
2023-03-14T15:56:49.659Z,97916.41
2023-03-14T16:01:51.468Z,97918.84
2023-03-14T16:06:53.087Z,97924.44
2023-03-14T16:11:54.966Z,97929.91
2023-03-14T16:16:59.999Z,97952.72
2023-03-14T16:22:01.742Z,97974.13
2023-03-14T16:27:03.402Z,97992.94
2023-03-14T16:32:05.450Z,98034.38
2023-03-14T16:37:07.199Z,98051.63
2023-03-14T16:42:08.966Z,98075.72
2023-03-14T16:47:11.109Z,98207.31
2023-03-14T16:52:12.885Z,98228.75
2023-03-14T16:57:14.421Z,98256.22
2023-03-14T17:02:16.166Z,98294.00
2023-03-14T17:07:17.760Z,98321.19
2023-03-14T17:12:19.319Z,98373.59
2023-03-14T17:17:20.934Z,98392.75
2023-03-14T17:22:25.128Z,98442.97
2023-03-14T17:27:30.704Z,98469.13
2023-03-14T17:32:32.344Z,98514.75
2023-03-14T17:37:34.490Z,98601.94
2023-03-14T17:42:36.072Z,98648.16
2023-03-14T17:47:37.674Z,98678.09
2023-03-14T17:52:39.626Z,98705.66
2023-03-14T17:57:43.981Z,98729.28
2023-03-14T18:02:45.916Z,98771.22
2023-03-14T18:07:47.526Z,98789.75
2023-03-14T18:12:49.095Z,98818.44
2023-03-14T18:17:50.939Z,98833.41
2023-03-14T18:22:52.502Z,98843.84
2023-03-14T18:27:54.185Z,98878.19
2023-03-14T18:32:55.822Z,98877.50
2023-03-14T18:37:57.462Z,98903.97
2023-03-14T18:42:59.038Z,98909.50
2023-03-14T18:48:00.757Z,98936.84
2023-03-14T18:53:03.098Z,98936.31
2023-03-14T18:58:04.659Z,98941.31
2023-03-14T19:03:06.288Z,98952.50
2023-03-14T19:08:07.893Z,98961.59
2023-03-14T19:13:09.460Z,98979.94
2023-03-14T19:18:11.290Z,98998.88
2023-03-14T19:23:15.462Z,99007.44
2023-03-14T19:28:17.328Z,99020.91
2023-03-14T19:33:19.102Z,99041.22
2023-03-14T19:38:20.706Z,99060.22
2023-03-14T19:43:22.278Z,99064.53
2023-03-14T19:48:30.098Z,99080.56
2023-03-14T19:53:32.100Z,99085.56
2023-03-14T19:58:34.049Z,99100.41
2023-03-14T20:03:36.520Z,99108.53
2023-03-14T20:08:38.911Z,99130.06
2023-03-14T20:13:40.600Z,99145.84
2023-03-14T20:18:42.238Z,99160.44
2023-03-14T20:23:44.156Z,99163.78
2023-03-14T20:28:47.184Z,99169.31
2023-03-14T20:33:51.301Z,99179.69
2023-03-14T20:38:53.585Z,99193.56
2023-03-14T20:43:55.188Z,99202.72
2023-03-14T20:48:56.753Z,99214.06
2023-03-14T20:53:58.459Z,99210.91
2023-03-14T20:59:00.017Z,99217.22
2023-03-14T21:04:01.933Z,99224.13
2023-03-14T21:09:05.580Z,99225.13
2023-03-14T21:14:07.244Z,99249.75
2023-03-14T21:19:08.812Z,99273.34
2023-03-14T21:24:10.461Z,99281.16
2023-03-14T21:29:12.212Z,99280.28
2023-03-14T21:34:13.869Z,99293.31
2023-03-14T21:39:15.559Z,99298.91
2023-03-14T21:44:19.053Z,99299.00
2023-03-14T21:49:20.729Z,99311.47
2023-03-14T21:54:22.414Z,99329.00
2023-03-14T21:59:24.021Z,99333.59
2023-03-14T22:04:25.888Z,99336.72
2023-03-14T22:09:27.587Z,99349.09
2023-03-14T22:14:29.133Z,99350.47
2023-03-14T22:19:34.737Z,99364.88
2023-03-14T22:24:36.240Z,99372.03
2023-03-14T22:29:37.939Z,99387.94
2023-03-14T22:34:39.541Z,99394.22
2023-03-14T22:39:41.286Z,99399.88
2023-03-14T22:44:42.812Z,99424.38
2023-03-14T22:49:44.606Z,99428.72
2023-03-14T22:54:46.209Z,99423.66
2023-03-14T22:59:47.775Z,99422.88
2023-03-14T23:04:49.471Z,99430.06
2023-03-14T23:09:51.085Z,99444.53
2023-03-14T23:14:53.898Z,99442.53
2023-03-14T23:19:55.642Z,99454.84
2023-03-14T23:24:57.190Z,99457.97
2023-03-14T23:29:58.803Z,99471.94
2023-03-14T23:35:00.379Z,99468.22
2023-03-14T23:40:03.080Z,99470.41
2023-03-14T23:45:05.116Z,99472.94
2023-03-14T23:50:07.154Z,99486.81
2023-03-14T23:55:09.176Z,99485.97
